Flight Track Log - Related Links

Times and Time Zones

All times are in EDT time to prevent confusion due to time zone crossing. See the ASQ5272 flight status page for this flight to view local times or setup timezone preferences in your user account.

Time Position Orientation Groundspeed Altitude Reporting Facility
EDT Latitude Longitude Course Direction KTS MPH feet Rate Location/Type
Tue 04:51:37 PM 32.8333 -96.8333 140° Southeast 142 163 1,300  Level Dallas / Fort Worth TRACON
Tue 04:52:02 PM 32.8167 -96.8167 140° Southeast 175 201 2,300 2,200 Climbing Dallas / Fort Worth TRACON
Tue 04:53:07 PM 32.7667 -96.7667 140° Southeast 261 300 4,600 2,381 Climbing Dallas / Fort Worth TRACON
Tue 04:54:08 PM 32.7500 -96.6833 103° East 278 320 7,300 2,164 Climbing Dallas / Fort Worth TRACON
Tue 04:55:09 PM 32.7806 -96.6031 66° East 301 346 9,000 843 Climbing Fort Worth Center
Tue 04:56:09 PM 32.8072 -96.5186 69° East 301 346 9,000 650 Level Fort Worth Center
Tue 04:57:09 PM 32.8397 -96.4119 70° East 295 339 10,300 1,350 Climbing Fort Worth Center
Tue 04:58:09 PM 32.8642 -96.3128 74° East 325 374 11,700 1,550 Climbing Fort Worth Center
Tue 04:59:09 PM 32.8669 -96.1817 89° East 353 406 13,400 1,700 Climbing Fort Worth Center
Tue 05:00:09 PM 32.8700 -96.0581 88° East 364 419 15,100 1,600 Climbing Fort Worth Center
Tue 05:01:09 PM 32.8728 -95.9392 88° East 364 419 16,600 1,500 Climbing Fort Worth Center
Tue 05:02:09 PM 32.8753 -95.8131 89° East 364 419 18,100 1,350 Climbing Fort Worth Center
Tue 05:03:09 PM 32.8781 -95.6894 88° East 364 419 19,300 1,150 Climbing Fort Worth Center
Tue 05:04:09 PM 32.8783 -95.5706 90° East 383 441 20,400 1,200 Climbing Fort Worth Center
Tue 05:05:09 PM 32.8764 -95.4419 91° East 383 441 21,700 1,300 Climbing Fort Worth Center
Tue 05:06:09 PM 32.8889 -95.3156 83° East 383 441 23,000 1,400 Climbing Fort Worth Center
Tue 05:07:09 PM 32.9075 -95.1742 81° East 389 448 24,500 1,412 Climbing Fort Worth Center
Tue 05:08:08 PM 32.9261 -95.0475 80° East 389 448 25,800 1,050 Climbing Fort Worth Center
Tue 05:09:09 PM 32.9464 -94.9206 79° East 389 448 26,600 744 Climbing Fort Worth Center
Tue 05:10:09 PM 32.9667 -94.7889 80° East 394 453 27,300 700 Climbing Fort Worth Center
Tue 05:11:09 PM 32.9869 -94.6519 80° East 399 459 28,000 700 Climbing Fort Worth Center
Tue 05:12:09 PM 33.0067 -94.5153 80° East 412 474 28,700 500 Climbing Fort Worth Center
Tue 05:13:09 PM 33.0264 -94.3758 80° East 417 480 29,000 100 Climbing Fort Worth Center
Tue 05:15:09 PM 33.0689 -94.0819 80° East 438 504 29,000  Level Fort Worth Center
Tue 05:16:09 PM 33.0694 -93.9431 90° East 455 524 29,000  Level Fort Worth Center
Tue 05:17:09 PM 33.0547 -93.7875 96° East 460 529 29,000  Level Fort Worth Center
Tue 05:18:09 PM 33.0375 -93.6344 98° East 466 536 29,000  Level Fort Worth Center
Tue 05:19:09 PM 33.0203 -93.4767 97° East 471 542 29,000  Level Fort Worth Center
Tue 05:20:09 PM 33.0028 -93.3214 98° East 471 542 29,000  Level Fort Worth Center
Tue 05:21:09 PM 32.9850 -93.1661 98° East 471 542 29,000  Level Fort Worth Center
Tue 05:22:09 PM 32.9672 -93.0111 98° East 471 542 29,000  Level Fort Worth Center
Tue 05:23:09 PM 32.9492 -92.8561 98° East 476 548 29,000  Level Fort Worth Center
Tue 05:24:41 PM 32.9169 -92.6117 99° East 454 522 29,000  Level Memphis Center
Tue 05:25:41 PM 32.8986 -92.4578 98° East 449 517 29,000  Level Memphis Center
Tue 05:26:41 PM 32.8761 -92.3089 100° East 455 524 29,000  Level Memphis Center
Tue 05:27:41 PM 32.8572 -92.1578 98° East 460 529 29,000  Level Memphis Center
Tue 05:28:41 PM 32.8425 -92.0336 98° East 460 529 29,000  Level Memphis Center
Tue 05:29:41 PM 32.8172 -91.8675 100° East 465 535 29,000  Level Memphis Center
Tue 05:30:41 PM 32.8003 -91.7167 98° East 465 535 29,000  Level Memphis Center
Tue 05:31:41 PM 32.7747 -91.5506 100° East 465 535 29,000  Level Memphis Center
Tue 05:32:41 PM 32.7575 -91.3997 98° East 465 535 29,000  Level Memphis Center
Tue 05:33:41 PM 32.7356 -91.2489 100° East 465 535 29,000  Level Memphis Center
Tue 05:34:41 PM 32.7136 -91.0981 100° East 465 535 29,000  Level Memphis Center
Tue 05:35:41 PM 32.6956 -90.9472 98° East 465 535 29,000  Level Memphis Center
Tue 05:36:41 PM 32.6733 -90.7967 100° East 465 535 29,000  Level Memphis Center
Tue 05:37:41 PM 32.6528 -90.6458 99° East 465 535 29,000  Level Memphis Center
Tue 05:38:41 PM 32.6300 -90.4956 100° East 465 535 29,000  Level Memphis Center
Tue 05:39:41 PM 32.6092 -90.3475 99° East 465 535 29,000  Level Memphis Center
Tue 05:40:41 PM 32.5861 -90.1969 100° East 465 535 29,000  Level Memphis Center
Tue 05:41:41 PM 32.5650 -90.0467 99° East 465 535 29,000  Level Memphis Center
Tue 05:42:41 PM 32.5458 -89.9136 100° East 465 535 29,000  Level Memphis Center
Tue 05:43:41 PM 32.5244 -89.7636 100° East 465 535 29,000  Level Memphis Center
Tue 05:44:41 PM 32.5006 -89.6133 101° East 465 535 29,000  Level Memphis Center
Tue 05:45:41 PM 32.4786 -89.4658 100° East 465 535 29,000  Level Memphis Center
Tue 05:46:41 PM 32.4567 -89.3158 100° East 460 529 29,000  Level Memphis Center
Tue 05:47:41 PM 32.4344 -89.1708 100° East 460 529 29,000  Level Memphis Center
Tue 05:48:41 PM 32.4100 -89.0186 101° East 460 529 29,000  Level Memphis Center
Tue 05:49:41 PM 32.3894 -88.8739 100° East 460 529 29,000  Level Memphis Center
Tue 05:51:29 PM 32.4028 -88.6094 87° East 442 509 29,000  Level Atlanta Center
Tue 05:52:29 PM 32.4208 -88.4628 82° East 447 514 29,000  Level Atlanta Center
Tue 05:53:29 PM 32.4386 -88.3136 82° East 452 520 29,000  Level Atlanta Center
Tue 05:54:29 PM 32.4564 -88.1619 82° East 462 532 29,000  Level Atlanta Center
Tue 05:55:29 PM 32.4778 -88.0178 80° East 457 526 29,000  Level Atlanta Center
Tue 05:56:29 PM 32.5097 -87.8664 76° East 462 532 29,000 -50 Level Atlanta Center
Tue 05:57:29 PM 32.5411 -87.7225 75° East 462 532 28,900 -650 Descending Atlanta Center
Tue 05:58:29 PM 32.5706 -87.5758 77° East 457 526 27,700 -1,200 Descending Atlanta Center
Tue 05:59:29 PM 32.6017 -87.4292 76° East 457 526 26,500 -1,200 Descending Atlanta Center
Tue 06:00:29 PM 32.6350 -87.2800 75° East 457 526 25,300 -1,200 Descending Atlanta Center
Tue 06:01:29 PM 32.6639 -87.1328 77° East 457 526 24,100 -650 Descending Atlanta Center
Tue 06:02:29 PM 32.6967 -86.9883 75° East 457 526 24,000 -50 Descending Atlanta Center
Tue 06:03:29 PM 32.7250 -86.8414 77° East 452 520 24,000  Level Atlanta Center
Tue 06:04:29 PM 32.7553 -86.6964 76° East 452 520 24,000  Level Atlanta Center
Tue 06:05:29 PM 32.7878 -86.5467 75° East 452 520 24,000  Level Atlanta Center
Tue 06:06:29 PM 32.8156 -86.3992 77° East 452 520 24,000  Level Atlanta Center
Tue 06:07:29 PM 32.8456 -86.2542 76° East 451 519 24,000  Level Atlanta Center
Tue 06:08:29 PM 32.8753 -86.1067 76° East 451 519 24,000 -750 Level Atlanta Center
Tue 06:09:29 PM 32.9172 -85.9617 71° East 451 519 22,500 -1,550 Descending Atlanta Center
Tue 06:10:29 PM 32.9611 -85.8189 70° East 451 519 20,900 -1,600 Descending Atlanta Center
Tue 06:11:29 PM 33.0006 -85.6786 71° East 451 519 19,300 -1,600 Descending Atlanta Center
Tue 06:12:29 PM 33.0400 -85.5381 71° East 446 513 17,700 -1,650 Descending Atlanta Center
Tue 06:13:29 PM 33.0789 -85.4122 70° East 423 487 16,000 -1,700 Descending Atlanta Center
Tue 06:14:29 PM 33.1158 -85.2864 71° East 406 467 14,300 -1,700 Descending Atlanta Center
Tue 06:15:29 PM 33.1506 -85.1553 72° East 399 459 12,600 -1,200 Descending Atlanta Center
Tue 06:16:29 PM 33.1847 -85.0442 70° East 375 432 11,900 -700 Descending Atlanta Center
Tue 06:17:29 PM 33.2378 -84.9653 51° Northeast 324 373 11,200 -1,100 Descending Atlanta Center
Tue 06:18:29 PM 33.2967 -84.8839 49° Northeast 296 341 9,700 -1,500 Descending Atlanta Center
Tue 06:19:29 PM 33.3492 -84.8197 46° Northeast 279 321 8,200 -1,300 Descending Atlanta Center
Tue 06:20:29 PM 33.4161 -84.8128 North 240 276 7,100 -1,200 Descending Atlanta Center
Tue 06:21:29 PM 33.4786 -84.8158 358° North 227 261 5,800 -1,250 Descending Atlanta Center
Tue 06:22:29 PM 33.5414 -84.8189 358° North 227 261 4,600 -900 Descending Atlanta Center
Tue 06:23:29 PM 33.6039 -84.8144 North 227 261 4,000 -497 Descending Atlanta Center
Tue 06:25:18 PM 33.6167 -84.6833 83° East 206 237 3,200 -320 Descending Atlanta TRACON
Tue 06:26:18 PM 33.6167 -84.6333 90° East 170 196 3,100 -53 Descending Atlanta TRACON
Tue 06:27:12 PM 33.6167 -84.5833 90° East 177 204 3,100 -368 Level Atlanta TRACON
Tue 06:28:12 PM 33.6167 -84.5333 90° East 150 173 2,400 -750 Descending Atlanta TRACON
Tue 06:29:12 PM 33.6167 -84.4833 90° East 138 159 1,600 -800 Descending Atlanta TRACON
Tue 06:31:00 PM 33.6367 -84.4279 64° Northeast  Level Estimated
Tue 06:38:00 PM 33.6367 -84.4279 64° Northeast  Level Estimated

Login

Don't have an account? Register now (free) for customized features, flight alerts, and more!